Terminal Aerodrome Forecast
Issued by NWS

Home | Current Version | Previous Version | Text Only | Print | Product List | Glossary On
Versions: 1 2 3 4 5 6 7 8 9 10 11 12 13 14 15 16
000
FTUS46 KLOX 011735
TAFSBP
TAF
KSBP 011735Z 0118/0218 VRB03KT P6SM OVC150
     FM012000 26008KT P6SM OVC150
     FM020400 VRB03KT P6SM SCT005 BKN150=

USA.gov is the U.S. government's official web portal to all federal, state and local government web resources and services.